Flight Track Log - Related Links

Times and Time Zones

All times are in EDT time to prevent confusion due to time zone crossing. See the KAP5 flight status page for this flight to view local times or setup timezone preferences in your user account.

Time Position Orientation Groundspeed Altitude Reporting Facility
EDT Latitude Longitude Course Direction KTS MPH feet Rate Location/Type
Sun 03:41:39 PM 41.6000 -70.6333 343° North 182 209 5,900  Level KA90
Sun 03:42:00 PM 41.5873 -70.6914 343° North  Level Estimated
Sun 03:42:15 PM 41.6333 -70.6500 340° North 185 213 5,900  Level KA90
Sun 03:43:00 PM 41.6089 -70.7000 343° North  Level Estimated
Sun 03:43:15 PM 41.6833 -70.6833 334° Northwest 186 214 5,900  Level KA90
Sun 03:44:00 PM 41.6304 -70.7087 343° North  Level Estimated
Sun 03:44:15 PM 41.7333 -70.7000 346° North 186 214 6,000  Level KA90
Sun 03:45:00 PM 41.6519 -70.7173 343° North  Level Estimated
Sun 03:45:21 PM 41.7833 -70.7333 334° Northwest 187 215 6,000  Level KA90
Sun 03:46:00 PM 41.6735 -70.7260 343° North  Level Estimated
Sun 03:46:15 PM 41.8167 -70.7500 340° North 185 213 6,000  Level KA90
Sun 03:47:00 PM 41.6950 -70.7347 343° North  Level Estimated
Sun 03:47:21 PM 41.8833 -70.7667 349° North 186 214 6,000  Level KA90
Sun 03:48:21 PM 41.9167 -70.8000 323° Northwest 184 212 6,000  Level KA90
Sun 03:49:21 PM 41.9667 -70.8333 334° Northwest 185 213 6,000 -50 Level KA90
Sun 03:50:21 PM 42.0167 -70.8667 334° Northwest 186 214 5,900 -263 Descending KA90
Sun 03:51:15 PM 42.0500 -70.9000 323° Northwest 193 222 5,500 -446 Descending KA90
Sun 03:52:22 PM 42.1000 -70.9500 323° Northwest 196 226 5,000 -250 Descending KA90
Sun 03:53:15 PM 42.1500 -70.9833 334° Northwest 191 220 5,000  Level KA90
Sun 03:54:15 PM 42.1833 -71.0167 323° Northwest 181 208 5,000  Level KA90
Sun 03:55:03 PM 42.2167 -71.0500 323° Northwest 179 206 5,000  Level KA90
Sun 03:56:04 PM 42.2667 -71.0833 334° Northwest 178 205 5,000  Level KA90
Sun 03:57:04 PM 42.3167 -71.1167 334° Northwest 178 205 5,000  Level KA90
Sun 03:58:09 PM 42.3667 -71.1333 346° North 189 217 5,000  Level KA90
Sun 03:59:09 PM 42.4167 -71.1167 14° North 185 213 5,000 -94 Level KA90
Sun 04:01:21 PM 42.5000 -71.0500 31° Northeast 193 222 4,700 -300 Descending KA90
Sun 04:02:09 PM 42.5333 -70.9833 56° Northeast 185 213 4,100 -810 Descending KA90
Sun 04:04:00 PM 42.4469 -70.9912 184° South  Level FlightAware Approximate
Sun 04:04:04 PM 42.4667 -70.9500 184° South 155 178 2,500  Level KA90
Sun 04:05:15 PM 42.4167 -70.9833 206° Southwest 139 160 1,400 -916 Descending KA90
Sun 04:06:15 PM 42.3833 -70.9833 180° South 112 129 500 -900 Descending KA90

Login

Don't have an account? Register now (free) for customized features, flight alerts, and more!